Time;durP1;ratioP1;P1;durP2;ratioP2;P2;SDS_P1;SDS_P2;PMS_P1;PMS_P2;Temp;Humidity;BMP_temperature;BMP_pressure;BME280_temperature;BME280_humidity;BME280_pressure;Samples;Min_cycle;Max_cycle;Signal;HPM_P1;HPM_P2
2022/10/27 00:01:03;;;;;;;23.48;6.63;;;9.90;99.90;;;;;;5071526;28;20487;-55
2022/10/27 00:03:28;;;;;;;20.10;6.95;;;9.90;99.90;;;;;;5071409;28;21437;-52
2022/10/27 00:05:54;;;;;;;15.30;7.05;;;9.80;99.90;;;;;;5071281;28;20025;-55
2022/10/27 00:08:21;;;;;;;18.33;7.38;;;9.70;99.90;;;;;;5070875;28;20504;-53
2022/10/27 00:10:58;;;;;;;16.73;6.07;;;9.70;99.90;;;;;;5071410;28;20028;-51
2022/10/27 00:13:23;;;;;;;11.00;5.20;;;9.60;99.90;;;;;;5071423;28;20028;-51
2022/10/27 00:16:18;;;;;;;10.45;5.82;;;9.60;99.90;;;;;;5071211;28;20033;-51
2022/10/27 00:18:44;;;;;;;10.75;6.22;;;9.60;99.90;;;;;;5049856;28;20068;-51
2022/10/27 00:21:16;;;;;;;16.10;6.15;;;9.50;99.90;;;;;;5071365;28;20035;-52
2022/10/27 00:23:42;;;;;;;13.98;5.55;;;9.50;99.90;;;;;;5071287;28;20108;-52
2022/10/27 00:26:11;;;;;;;10.15;5.82;;;9.50;99.90;;;;;;5071046;28;20029;-50
2022/10/27 00:28:38;;;;;;;19.88;6.03;;;9.40;99.90;;;;;;5071274;28;20434;-52
2022/10/27 00:31:19;;;;;;;11.80;5.18;;;9.40;99.90;;;;;;5071533;28;20035;-50
2022/10/27 00:33:47;;;;;;;10.10;5.55;;;9.30;99.90;;;;;;5075228;28;20024;-51
2022/10/27 00:36:18;;;;;;;13.98;4.85;;;9.30;99.90;;;;;;5074842;28;20024;-55
2022/10/27 00:38:44;;;;;;;6.88;4.72;;;9.30;99.90;;;;;;5075090;28;20028;-50
2022/10/27 00:41:29;;;;;;;36.70;5.53;;;9.20;99.90;;;;;;5075145;28;20048;-56
2022/10/27 00:43:56;;;;;;;12.40;4.45;;;9.20;99.90;;;;;;5075116;28;20640;-51
2022/10/27 00:46:30;;;;;;;13.45;5.07;;;9.20;99.90;;;;;;5073312;28;20021;-52
2022/10/27 00:49:10;;;;;;;7.97;5.32;;;9.10;99.90;;;;;;5075002;28;20047;-50
2022/10/27 00:51:40;;;;;;;8.35;4.75;;;9.10;99.90;;;;;;5074793;28;20032;-50
2022/10/27 00:54:06;;;;;;;6.55;4.50;;;9.10;99.90;;;;;;5074792;28;20120;-53
2022/10/27 00:56:32;;;;;;;6.50;4.93;;;9.00;99.90;;;;;;5074458;28;20035;-51
2022/10/27 00:58:58;;;;;;;6.60;4.47;;;9.00;99.90;;;;;;5074626;28;20123;-52
2022/10/27 01:01:25;;;;;;;7.85;5.15;;;9.00;99.90;;;;;;5074773;28;20411;-51
2022/10/27 01:03:51;;;;;;;8.85;4.13;;;9.00;99.90;;;;;;5074450;28;20039;-55
2022/10/27 01:06:17;;;;;;;7.90;4.22;;;8.90;99.90;;;;;;5074404;28;20024;-50
2022/10/27 01:08:43;;;;;;;8.68;4.78;;;8.90;99.90;;;;;;5074312;28;20395;-52
2022/10/27 01:11:09;;;;;;;9.25;4.43;;;8.90;99.90;;;;;;5074429;28;20452;-53
2022/10/27 01:13:35;;;;;;;9.50;4.30;;;8.80;99.90;;;;;;5072924;28;20158;-50
2022/10/27 01:16:13;;;;;;;6.05;3.90;;;8.80;99.90;;;;;;5074313;28;20043;-52
2022/10/27 01:18:46;;;;;;;9.70;4.57;;;8.80;99.90;;;;;;5063093;28;20021;-53
2022/10/27 01:21:18;;;;;;;7.95;4.65;;;8.80;99.90;;;;;;5074115;28;20104;-53
2022/10/27 01:23:46;;;;;;;63.60;6.80;;;8.70;99.90;;;;;;5074417;28;20025;-52
2022/10/27 01:26:46;;;;;;;16.05;5.22;;;8.80;99.90;;;;;;5073950;28;20035;-52
2022/10/27 01:29:33;;;;;;;14.77;6.07;;;8.80;99.90;;;;;;5074123;28;20382;-52
2022/10/27 01:32:20;;;;;;;63.50;7.05;;;8.80;99.90;;;;;;5074487;28;20086;-50
2022/10/27 01:34:51;;;;;;;29.90;6.03;;;8.70;99.90;;;;;;5074088;28;20103;-52
2022/10/27 01:37:25;;;;;;;17.73;5.80;;;8.70;99.90;;;;;;5073684;28;20463;-52
2022/10/27 01:39:50;;;;;;;9.18;4.85;;;8.70;99.90;;;;;;5072568;28;20464;-55
2022/10/27 01:42:41;;;;;;;15.35;5.75;;;8.70;99.90;;;;;;5072161;28;20078;-51
2022/10/27 01:45:10;;;;;;;9.82;4.32;;;8.60;99.90;;;;;;5073959;28;20024;-52
2022/10/27 01:47:37;;;;;;;18.45;5.63;;;8.60;99.90;;;;;;5073633;28;20395;-54
2022/10/27 01:50:03;;;;;;;12.23;4.10;;;8.50;99.90;;;;;;5073903;28;20025;-55
2022/10/27 01:52:48;;;;;;;56.35;6.80;;;8.50;99.90;;;;;;5073756;28;20554;-53
2022/10/27 01:55:36;;;;;;;22.02;5.95;;;8.40;99.90;;;;;;5072287;28;20024;-51
2022/10/27 01:58:24;;;;;;;11.30;5.30;;;8.30;99.90;;;;;;5073690;28;20050;-54
2022/10/27 02:01:23;;;;;;;11.15;5.75;;;8.40;99.90;;;;;;5073840;28;20020;-51
2022/10/27 02:04:13;;;;;;;21.58;6.75;;;8.40;99.90;;;;;;5073583;28;20032;-55
2022/10/27 02:06:58;;;;;;;13.50;6.05;;;8.40;99.90;;;;;;5073325;28;20103;-54
2022/10/27 02:09:23;;;;;;;19.00;6.03;;;8.40;99.90;;;;;;5073254;28;20045;-50
2022/10/27 02:11:51;;;;;;;16.98;5.75;;;8.40;99.90;;;;;;5073489;28;20361;-52
2022/10/27 02:14:18;;;;;;;13.20;6.53;;;8.40;99.90;;;;;;5073319;28;20032;-50
2022/10/27 02:16:48;;;;;;;20.40;6.85;;;8.40;99.90;;;;;;5071881;28;20021;-53
2022/10/27 02:19:26;;;;;;;13.43;6.03;;;8.40;99.90;;;;;;5072924;28;20082;-55
2022/10/27 02:21:55;;;;;;;10.90;6.28;;;8.40;99.90;;;;;;5073420;28;20020;-52
2022/10/27 02:24:21;;;;;;;18.83;6.20;;;8.30;99.90;;;;;;5073166;28;20027;-53
2022/10/27 02:26:52;;;;;;;25.75;6.78;;;8.30;99.90;;;;;;5072929;28;20343;-51
2022/10/27 02:29:33;;;;;;;32.63;6.07;;;8.30;99.90;;;;;;5073220;28;20490;-54
2022/10/27 02:32:05;;;;;;;176.00;9.40;;;8.20;99.90;;;;;;5073038;28;20029;-51
2022/10/27 02:34:32;;;;;;;84.88;8.65;;;8.20;99.90;;;;;;5072842;28;20111;-54
2022/10/27 02:36:58;;;;;;;78.65;7.97;;;8.10;99.90;;;;;;5072726;28;20448;-53
2022/10/27 02:39:24;;;;;;;88.32;7.65;;;8.20;99.90;;;;;;5072867;28;20033;-49
2022/10/27 02:41:50;;;;;;;47.90;7.00;;;8.20;99.90;;;;;;5072863;28;20016;-52
2022/10/27 02:44:16;;;;;;;45.15;8.05;;;8.10;99.90;;;;;;5072616;28;20402;-53
2022/10/27 02:46:42;;;;;;;26.20;6.80;;;8.10;99.90;;;;;;5072321;28;20521;-52
2022/10/27 02:49:07;;;;;;;32.20;7.10;;;8.10;99.90;;;;;;5072537;28;20100;-52
2022/10/27 02:51:33;;;;;;;33.47;7.60;;;8.10;99.90;;;;;;5072585;28;20123;-52
2022/10/27 02:53:58;;;;;;;20.80;6.47;;;8.10;99.90;;;;;;5071894;28;20029;-53
2022/10/27 02:56:24;;;;;;;18.00;6.25;;;8.10;99.90;;;;;;5072239;28;20020;-53
2022/10/27 02:58:50;;;;;;;12.07;5.68;;;8.00;99.90;;;;;;5072271;28;20024;-52
2022/10/27 03:01:16;;;;;;;12.77;5.47;;;8.00;99.90;;;;;;5072356;28;20013;-53
2022/10/27 03:03:41;;;;;;;15.05;5.60;;;8.00;99.90;;;;;;5072347;28;20032;-51
2022/10/27 03:06:07;;;;;;;9.85;5.18;;;7.90;99.90;;;;;;5072396;28;20040;-51
2022/10/27 03:08:33;;;;;;;8.55;5.03;;;7.90;99.90;;;;;;5071624;28;20047;-50
2022/10/27 03:10:58;;;;;;;13.23;5.38;;;7.90;99.90;;;;;;5072308;28;20024;-51
2022/10/27 03:13:24;;;;;;;9.85;5.63;;;7.80;99.90;;;;;;5072164;28;20036;-53
2022/10/27 03:15:50;;;;;;;11.48;5.28;;;7.80;99.90;;;;;;5072079;28;20419;-51
2022/10/27 03:18:16;;;;;;;15.75;5.40;;;7.80;99.90;;;;;;5071764;28;20569;-50
2022/10/27 03:20:45;;;;;;;14.75;5.65;;;7.80;99.90;;;;;;5072129;28;20072;-51
2022/10/27 03:23:11;;;;;;;25.25;5.18;;;7.80;99.90;;;;;;5071832;28;20020;-51
2022/10/27 03:25:42;;;;;;;12.45;5.43;;;7.80;99.90;;;;;;5071852;28;20024;-51
2022/10/27 03:28:08;;;;;;;9.57;4.63;;;7.80;99.90;;;;;;5071819;28;20032;-52
2022/10/27 03:30:34;;;;;;;13.20;4.88;;;7.80;99.90;;;;;;5071845;28;20056;-51
2022/10/27 03:33:00;;;;;;;11.85;5.82;;;7.70;99.90;;;;;;5071930;28;20118;-51
2022/10/27 03:35:26;;;;;;;10.70;4.63;;;7.70;99.90;;;;;;5071693;28;20032;-51
2022/10/27 03:37:59;;;;;;;10.43;4.70;;;7.70;99.90;;;;;;5071468;28;20507;-50
2022/10/27 03:40:26;;;;;;;12.23;4.75;;;7.60;99.90;;;;;;5071778;28;20032;-51
2022/10/27 03:42:56;;;;;;;13.65;4.30;;;7.60;99.90;;;;;;5071768;28;20559;-51
2022/10/27 03:45:22;;;;;;;7.25;4.43;;;7.60;99.90;;;;;;5071791;28;20013;-52
2022/10/27 03:47:47;;;;;;;15.68;4.75;;;7.60;99.90;;;;;;5071517;28;20020;-51
2022/10/27 03:50:18;;;;;;;12.98;4.55;;;7.60;99.90;;;;;;5070207;28;20141;-51
2022/10/27 03:52:44;;;;;;;7.60;3.70;;;7.60;99.90;;;;;;5071550;28;20028;-51
2022/10/27 03:55:10;;;;;;;17.92;4.30;;;7.60;99.90;;;;;;5071573;28;20027;-54
2022/10/27 03:57:35;;;;;;;23.88;4.90;;;7.60;99.90;;;;;;5071459;28;20540;-52
2022/10/27 04:00:01;;;;;;;11.30;4.55;;;7.50;99.90;;;;;;5071431;28;20028;-50
2022/10/27 04:02:26;;;;;;;5.93;4.18;;;7.50;99.90;;;;;;5071211;28;20393;-51
2022/10/27 04:04:55;;;;;;;9.32;4.45;;;7.50;99.90;;;;;;5071472;28;20453;-53
2022/10/27 04:07:21;;;;;;;11.65;4.80;;;7.50;99.90;;;;;;5071311;28;20399;-53
2022/10/27 04:09:47;;;;;;;10.70;4.88;;;7.50;99.90;;;;;;5071446;28;20045;-50
2022/10/27 04:12:12;;;;;;;10.30;4.05;;;7.50;99.90;;;;;;5071075;28;20025;-51
2022/10/27 04:14:38;;;;;;;12.27;4.40;;;7.50;99.90;;;;;;5071597;28;20021;-51
2022/10/27 04:17:03;;;;;;;7.97;4.55;;;7.50;99.90;;;;;;5071494;28;20037;-51
2022/10/27 04:19:29;;;;;;;15.02;4.50;;;7.40;99.90;;;;;;5069838;28;20045;-51
2022/10/27 04:21:55;;;;;;;6.28;4.20;;;7.40;99.90;;;;;;5071132;28;20025;-50
2022/10/27 04:24:21;;;;;;;11.45;4.88;;;7.40;99.90;;;;;;5071232;28;20024;-55
2022/10/27 04:26:47;;;;;;;12.50;5.10;;;7.40;99.90;;;;;;5071066;28;20555;-51
2022/10/27 04:29:12;;;;;;;12.45;4.95;;;7.40;99.90;;;;;;5070390;28;20024;-52
2022/10/27 04:31:38;;;;;;;20.02;5.45;;;7.40;99.90;;;;;;5070532;28;20527;-50
2022/10/27 04:34:03;;;;;;;15.50;5.97;;;7.40;99.90;;;;;;5070558;28;20117;-52
2022/10/27 04:36:29;;;;;;;7.30;4.78;;;7.40;99.90;;;;;;5070205;28;20125;-52
2022/10/27 04:38:55;;;;;;;27.73;6.38;;;7.40;99.90;;;;;;5069772;28;20353;-54
2022/10/27 04:41:21;;;;;;;21.17;5.90;;;7.30;99.90;;;;;;5070298;28;20439;-52
2022/10/27 04:43:50;;;;;;;13.20;5.35;;;7.30;99.90;;;;;;5069126;28;20553;-50
2022/10/27 04:46:16;;;;;;;45.28;7.72;;;7.40;99.90;;;;;;5070848;28;20020;-51
2022/10/27 04:48:42;;;;;;;119.35;8.90;;;7.40;99.90;;;;;;5070859;28;20056;-55
2022/10/27 04:51:07;;;;;;;163.40;8.55;;;7.30;99.90;;;;;;5070958;28;20052;-52
2022/10/27 04:53:33;;;;;;;105.70;7.80;;;7.30;99.90;;;;;;5070979;28;20047;-51
2022/10/27 04:55:59;;;;;;;145.00;8.80;;;7.30;99.90;;;;;;5071116;28;20032;-51
2022/10/27 04:58:25;;;;;;;106.90;8.35;;;7.20;99.90;;;;;;5069410;28;20533;-50
2022/10/27 05:00:50;;;;;;;38.17;8.18;;;7.30;99.90;;;;;;5069638;28;20032;-52
2022/10/27 05:03:16;;;;;;;13.10;5.45;;;7.30;99.90;;;;;;5070545;28;20025;-50
2022/10/27 05:05:42;;;;;;;46.53;7.50;;;7.30;99.90;;;;;;5070734;28;20013;-51
2022/10/27 05:08:13;;;;;;;63.33;7.05;;;7.20;99.90;;;;;;5070785;28;20056;-50
2022/10/27 05:10:38;;;;;;;12.13;5.50;;;7.20;99.90;;;;;;5070620;28;20491;-51
2022/10/27 05:13:04;;;;;;;7.32;5.05;;;7.10;99.90;;;;;;5070931;28;20054;-51
2022/10/27 05:15:30;;;;;;;13.77;5.75;;;7.10;99.90;;;;;;5070661;28;20020;-51
2022/10/27 05:17:56;;;;;;;11.45;4.82;;;7.10;99.90;;;;;;5072172;28;20094;-51
2022/10/27 05:20:22;;;;;;;12.00;5.30;;;7.10;99.90;;;;;;5073883;28;20029;-51
2022/10/27 05:22:48;;;;;;;9.82;5.05;;;7.10;99.90;;;;;;5074222;28;20682;-50
2022/10/27 05:25:14;;;;;;;12.82;5.53;;;7.10;99.90;;;;;;5074116;28;20773;-50
2022/10/27 05:27:39;;;;;;;18.88;5.75;;;7.10;99.90;;;;;;5072952;28;20387;-50
2022/10/27 05:30:06;;;;;;;79.50;7.35;;;7.10;99.90;;;;;;5073944;28;20028;-51
2022/10/27 05:32:32;;;;;;;130.25;8.23;;;7.10;99.90;;;;;;5073651;28;20029;-52
2022/10/27 05:34:58;;;;;;;87.53;7.18;;;7.10;99.90;;;;;;5073811;28;20028;-49
2022/10/27 05:37:23;;;;;;;54.90;7.10;;;7.00;99.90;;;;;;5073856;28;20025;-51
2022/10/27 05:39:49;;;;;;;81.03;10.32;;;7.00;99.90;;;;;;5073795;28;20058;-51
2022/10/27 05:42:15;;;;;;;49.83;6.57;;;7.00;99.90;;;;;;5073651;28;20024;-51
2022/10/27 05:44:40;;;;;;;94.00;8.05;;;7.00;99.90;;;;;;5072202;28;20040;-50
2022/10/27 05:47:06;;;;;;;16.77;5.57;;;6.90;99.90;;;;;;5073871;28;20372;-55
2022/10/27 05:49:32;;;;;;;12.20;5.10;;;7.00;99.90;;;;;;5073259;28;20360;-54
2022/10/27 05:51:57;;;;;;;10.25;5.85;;;7.00;99.90;;;;;;5073674;28;20375;-51
2022/10/27 05:54:23;;;;;;;20.08;6.93;;;7.00;99.90;;;;;;5073674;28;20032;-51
2022/10/27 05:56:50;;;;;;;26.52;6.53;;;7.00;99.90;;;;;;5073796;28;20056;-50
2022/10/27 05:59:15;;;;;;;10.27;5.03;;;7.00;99.90;;;;;;5072540;28;20392;-50
2022/10/27 06:01:41;;;;;;;11.27;6.93;;;7.00;99.90;;;;;;5070956;28;20020;-50
2022/10/27 06:04:07;;;;;;;26.58;6.70;;;7.10;99.90;;;;;;5071240;28;20021;-49
2022/10/27 06:06:33;;;;;;;21.40;8.45;;;7.10;99.90;;;;;;5072301;28;20043;-49
2022/10/27 06:08:58;;;;;;;12.60;7.35;;;7.10;99.90;;;;;;5071656;28;20084;-52
2022/10/27 06:11:26;;;;;;;20.90;10.25;;;7.10;99.90;;;;;;5071780;28;20056;-52
2022/10/27 06:13:52;;;;;;;17.55;8.63;;;7.10;99.90;;;;;;5072061;28;20021;-51
2022/10/27 06:16:22;;;;;;;13.32;6.57;;;7.20;99.90;;;;;;5072021;28;20147;-50
2022/10/27 06:18:48;;;;;;;15.35;6.75;;;7.20;99.90;;;;;;5072184;28;20415;-52
2022/10/27 06:21:13;;;;;;;16.70;7.32;;;7.20;99.90;;;;;;5070304;28;20028;-50
2022/10/27 06:23:40;;;;;;;14.38;6.88;;;7.20;99.90;;;;;;5071741;28;20487;-52
2022/10/27 06:26:08;;;;;;;9.48;6.63;;;7.30;99.90;;;;;;5071991;28;20021;-51
2022/10/27 06:28:34;;;;;;;9.85;5.85;;;7.40;99.90;;;;;;5071628;28;20048;-50
2022/10/27 06:30:59;;;;;;;10.55;4.90;;;7.40;99.90;;;;;;5071471;28;20060;-51
2022/10/27 06:33:25;;;;;;;9.80;5.80;;;7.40;99.90;;;;;;5070252;28;20054;-52
2022/10/27 06:35:51;;;;;;;13.55;5.50;;;7.40;99.90;;;;;;5070914;28;20016;-51
2022/10/27 06:38:17;;;;;;;11.02;5.15;;;7.50;99.90;;;;;;5070105;28;20029;-51
2022/10/27 06:40:43;;;;;;;15.25;5.68;;;7.50;99.90;;;;;;5071190;28;20239;-50
2022/10/27 06:43:09;;;;;;;8.38;5.32;;;7.60;99.90;;;;;;5071366;28;20494;-51
2022/10/27 06:45:36;;;;;;;12.25;5.45;;;7.70;99.90;;;;;;5071610;28;20541;-52
2022/10/27 06:48:02;;;;;;;13.48;5.93;;;7.70;99.90;;;;;;5071420;28;20395;-51
2022/10/27 06:50:29;;;;;;;12.55;6.38;;;7.80;99.90;;;;;;5071028;28;20400;-50
2022/10/27 06:52:54;;;;;;;14.15;6.05;;;7.80;99.90;;;;;;5071173;28;20442;-52
2022/10/27 06:55:21;;;;;;;12.60;5.88;;;7.90;99.90;;;;;;5071124;28;20056;-54
2022/10/27 06:57:46;;;;;;;12.98;6.05;;;8.00;99.90;;;;;;5071491;28;20383;-52
2022/10/27 07:00:13;;;;;;;16.02;6.32;;;8.10;99.90;;;;;;5070577;28;20024;-50
2022/10/27 07:02:38;;;;;;;9.93;5.20;;;8.20;99.90;;;;;;5071132;28;20367;-51
2022/10/27 07:05:05;;;;;;;9.55;5.88;;;8.30;99.90;;;;;;5070936;28;20028;-51
2022/10/27 07:07:31;;;;;;;9.60;5.80;;;8.40;99.90;;;;;;5070882;28;20058;-52
2022/10/27 07:09:57;;;;;;;12.82;7.53;;;8.50;99.90;;;;;;5070758;28;20313;-49
2022/10/27 07:12:23;;;;;;;12.02;8.18;;;8.50;99.90;;;;;;5070844;28;20032;-50
2022/10/27 07:14:48;;;;;;;17.98;10.35;;;8.60;99.90;;;;;;5070848;28;20032;-51
2022/10/27 07:17:14;;;;;;;16.63;10.18;;;8.70;99.90;;;;;;5070651;28;20060;-53
2022/10/27 07:19:40;;;;;;;17.38;9.95;;;8.80;99.90;;;;;;5070733;28;20043;-51
2022/10/27 07:22:06;;;;;;;15.55;12.43;;;8.90;99.90;;;;;;5070793;28;20028;-53
2022/10/27 07:24:31;;;;;;;16.00;13.10;;;9.00;99.90;;;;;;5070640;28;20024;-51
2022/10/27 07:26:57;;;;;;;17.45;14.32;;;9.10;99.90;;;;;;5070744;28;20017;-50
2022/10/27 07:29:22;;;;;;;22.23;14.32;;;9.20;99.90;;;;;;5070300;28;20089;-53
2022/10/27 07:31:48;;;;;;;16.38;12.82;;;9.20;99.90;;;;;;5070321;28;20081;-51
2022/10/27 07:34:14;;;;;;;26.92;13.45;;;9.30;99.90;;;;;;5070611;28;20028;-50
2022/10/27 07:36:39;;;;;;;15.05;12.05;;;9.40;99.90;;;;;;5070529;28;20431;-53
2022/10/27 07:39:05;;;;;;;13.85;10.18;;;9.50;99.90;;;;;;5070227;28;20502;-50
2022/10/27 07:41:31;;;;;;;13.32;9.10;;;9.70;99.90;;;;;;5069928;28;20024;-51
2022/10/27 07:43:57;;;;;;;15.30;8.40;;;9.80;99.90;;;;;;5068568;28;20052;-51
2022/10/27 07:46:23;;;;;;;12.63;8.15;;;10.00;99.90;;;;;;5069889;28;20031;-50
2022/10/27 07:48:48;;;;;;;14.95;8.75;;;10.10;99.90;;;;;;5070172;28;20032;-51
2022/10/27 07:51:14;;;;;;;11.80;6.63;;;10.30;99.90;;;;;;5070548;28;20028;-53
2022/10/27 07:53:40;;;;;;;12.73;7.20;;;10.50;99.90;;;;;;5068538;28;20028;-51
2022/10/27 07:56:06;;;;;;;11.60;6.97;;;10.70;99.90;;;;;;5070145;28;20051;-52
2022/10/27 07:58:31;;;;;;;15.02;6.88;;;10.90;99.90;;;;;;5070296;28;20073;-50
2022/10/27 08:00:58;;;;;;;15.95;6.13;;;11.00;99.90;;;;;;5069991;28;20491;-50
2022/10/27 08:03:27;;;;;;;12.27;6.15;;;11.20;99.90;;;;;;5069999;28;20438;-57
2022/10/27 08:05:53;;;;;;;16.83;6.22;;;11.40;99.90;;;;;;5070949;28;20012;-51
2022/10/27 08:08:19;;;;;;;13.18;6.15;;;11.50;99.90;;;;;;5069880;28;20063;-51
2022/10/27 08:10:47;;;;;;;9.95;5.53;;;11.70;99.90;;;;;;5070189;28;20471;-53
2022/10/27 08:13:13;;;;;;;10.30;5.90;;;11.90;99.90;;;;;;5070044;28;20085;-51
2022/10/27 08:15:40;;;;;;;19.00;5.75;;;12.00;99.90;;;;;;5070151;28;20021;-50
2022/10/27 08:18:06;;;;;;;12.20;5.68;;;12.20;99.90;;;;;;5070153;28;20491;-51
2022/10/27 08:20:36;;;;;;;8.82;5.53;;;12.30;99.90;;;;;;5070191;28;20104;-50
2022/10/27 08:23:09;;;;;;;7.22;4.45;;;12.40;99.90;;;;;;5069963;28;20024;-51
2022/10/27 08:25:34;;;;;;;13.38;5.78;;;12.60;99.90;;;;;;5070172;28;20032;-51
2022/10/27 08:28:00;;;;;;;16.80;3.95;;;12.80;99.90;;;;;;5070119;28;20025;-52
2022/10/27 08:30:29;;;;;;;12.82;5.05;;;12.90;99.90;;;;;;5069739;28;20021;-52
2022/10/27 08:32:57;;;;;;;13.13;4.85;;;13.20;99.90;;;;;;5070100;28;20027;-52
2022/10/27 08:35:24;;;;;;;6.97;4.80;;;13.40;99.90;;;;;;5069703;28;20028;-50
2022/10/27 08:37:56;;;;;;;11.15;4.78;;;13.60;99.90;;;;;;5069841;28;20482;-51
2022/10/27 08:40:21;;;;;;;20.00;5.47;;;13.70;99.90;;;;;;5069428;28;20063;-52
2022/10/27 08:43:15;;;;;;;15.52;5.05;;;13.90;99.90;;;;;;5068698;28;20048;-52
2022/10/27 08:46:03;;;;;;;;;;;14.00;99.90;;;;;;5070378;28;20442;-51
2022/10/27 08:48:32;;;;;;;16.80;5.00;;;14.20;99.90;;;;;;5069510;28;19908;-50
2022/10/27 08:50:59;;;;;;;14.32;4.97;;;14.50;99.90;;;;;;5069615;28;20028;-50
2022/10/27 08:53:30;;;;;;;12.88;5.38;;;14.70;99.90;;;;;;5070444;28;20035;-51
2022/10/27 08:56:08;;;;;;;11.95;4.55;;;14.90;99.90;;;;;;5073441;28;20024;-52
2022/10/27 08:58:42;;;;;;;16.80;6.35;;;15.20;99.90;;;;;;5071914;28;20494;-52
2022/10/27 09:01:08;;;;;;;19.77;7.78;;;15.40;99.90;;;;;;5073452;28;20029;-51
2022/10/27 09:03:55;;;;;;;14.50;4.78;;;15.40;99.90;;;;;;5072588;28;20028;-51
2022/10/27 09:06:26;;;;;;;9.50;4.55;;;15.50;99.90;;;;;;5071068;28;20024;-50
2022/10/27 09:09:00;;;;;;;7.88;3.83;;;15.40;99.90;;;;;;5071493;28;20102;-50
2022/10/27 09:11:37;;;;;;;15.27;5.07;;;15.50;99.90;;;;;;5071050;28;20039;-51
2022/10/27 09:14:40;;;;;;;10.20;3.60;;;15.60;99.90;;;;;;5073454;28;20048;-50
2022/10/27 09:17:24;;;;;;;13.60;3.42;;;15.80;99.90;;;;;;5073417;28;20020;-51
2022/10/27 09:20:00;;;;;;;13.25;4.22;;;16.00;99.90;;;;;;5073058;28;20021;-50
2022/10/27 09:22:27;;;;;;;18.23;4.60;;;16.00;99.90;;;;;;5073075;28;20024;-52
2022/10/27 09:24:58;;;;;;;5.60;3.20;;;16.30;99.90;;;;;;5072835;28;20472;-50
2022/10/27 09:27:24;;;;;;;22.95;4.18;;;16.30;99.90;;;;;;5072569;28;20038;-54
2022/10/27 09:29:51;;;;;;;10.55;4.00;;;16.50;99.90;;;;;;5073185;28;20418;-53
2022/10/27 09:32:25;;;;;;;11.43;3.92;;;16.50;99.90;;;;;;5072549;28;20107;-52
2022/10/27 09:35:10;;;;;;;10.98;3.97;;;16.50;99.90;;;;;;5068112;28;20476;-51
2022/10/27 09:37:42;;;;;;;10.45;3.60;;;16.70;99.90;;;;;;5070505;28;20452;-50
2022/10/27 09:40:14;;;;;;;18.23;3.85;;;17.00;99.90;;;;;;5072143;28;20055;-51
2022/10/27 09:42:40;;;;;;;9.00;3.75;;;17.10;99.90;;;;;;5071875;28;20025;-54
2022/10/27 09:45:35;;;;;;;17.92;3.35;;;17.30;99.90;;;;;;5072008;28;20045;-50
2022/10/27 09:48:06;;;;;;;9.25;3.53;;;17.60;99.90;;;;;;5062963;28;20072;-53
2022/10/27 09:50:56;;;;;;;11.20;3.75;;;18.60;99.90;;;;;;5070580;28;20570;-51
2022/10/27 09:53:40;;;;;;;11.93;3.17;;;19.90;99.90;;;;;;5071390;28;20043;-50
2022/10/27 09:56:09;;;;;;;17.48;3.63;;;21.40;99.90;;;;;;5071599;28;20466;-52
2022/10/27 09:59:03;;;;;;;20.52;3.90;;;22.60;97.10;;;;;;5071896;28;20040;-52
2022/10/27 10:01:55;;;;;;;5.78;2.80;;;24.00;94.00;;;;;;5069581;28;20036;-51
2022/10/27 10:04:30;;;;;;;14.37;3.17;;;24.80;91.90;;;;;;5071795;28;20024;-55
2022/10/27 10:06:58;;;;;;;18.33;4.00;;;25.20;90.00;;;;;;5072386;28;20503;-50
2022/10/27 10:09:35;;;;;;;10.40;2.40;;;25.50;87.60;;;;;;5072146;28;20068;-52
2022/10/27 10:12:22;;;;;;;14.25;3.10;;;25.50;84.80;;;;;;5072259;28;20016;-54
2022/10/27 10:14:49;;;;;;;18.60;3.65;;;25.50;83.60;;;;;;5071997;28;20496;-51
2022/10/27 10:17:22;;;;;;;8.32;2.78;;;26.50;81.70;;;;;;5071841;28;20406;-54
2022/10/27 10:19:49;;;;;;;11.90;2.42;;;26.70;79.00;;;;;;5072214;28;20109;-51
2022/10/27 10:22:25;;;;;;;7.53;2.53;;;27.20;76.40;;;;;;5071903;28;20046;-52
2022/10/27 10:24:51;;;;;;;8.38;2.40;;;26.80;77.00;;;;;;5072055;28;20305;-54
2022/10/27 10:27:35;;;;;;;23.33;3.13;;;27.80;74.30;;;;;;5071823;28;20028;-55
2022/10/27 10:30:03;;;;;;;8.20;2.33;;;27.40;73.20;;;;;;5071728;28;20107;-51
2022/10/27 10:32:36;;;;;;;10.15;2.28;;;27.30;73.60;;;;;;5071778;28;20540;-55
2022/10/27 10:35:57;;;;;;;12.48;3.28;;;27.30;71.00;;;;;;5071880;28;20082;-53
2022/10/27 10:38:23;;;;;;;7.35;2.55;;;26.90;70.20;;;;;;5037314;28;20041;-53
2022/10/27 10:41:15;;;;;;;8.20;2.70;;;27.90;71.60;;;;;;5071591;28;20225;-51
2022/10/27 10:43:41;;;;;;;10.52;2.70;;;28.40;70.20;;;;;;5071240;28;20024;-52
2022/10/27 10:46:24;;;;;;;13.50;3.42;;;28.60;69.20;;;;;;5070941;28;20021;-50
2022/10/27 10:48:50;;;;;;;;;;;28.40;68.90;;;;;;5071582;28;20426;-51
2022/10/27 10:51:28;;;;;;;7.90;2.90;;;28.30;70.00;;;;;;5086678;28;19909;-51
2022/10/27 10:54:07;;;;;;;12.25;2.60;;;29.40;68.90;;;;;;5070825;28;20157;-50
2022/10/27 10:56:35;;;;;;;8.50;2.55;;;29.20;68.80;;;;;;5070382;28;20399;-50
2022/10/27 10:59:09;;;;;;;9.55;2.83;;;29.50;67.00;;;;;;5070445;28;20032;-51
2022/10/27 11:01:46;;;;;;;17.13;3.05;;;28.90;67.40;;;;;;5070866;28;20368;-52
2022/10/27 11:04:16;;;;;;;15.70;2.92;;;28.70;68.00;;;;;;5070391;28;20364;-51
2022/10/27 11:07:00;;;;;;;5.22;2.20;;;28.90;66.80;;;;;;5070692;28;20376;-52
2022/10/27 11:09:35;;;;;;;11.45;2.70;;;29.10;67.50;;;;;;5069792;28;20071;-52
2022/10/27 11:12:02;;;;;;;10.90;3.08;;;28.50;66.60;;;;;;5070675;28;20013;-53
2022/10/27 11:14:28;;;;;;;10.32;3.15;;;28.60;67.30;;;;;;5070254;28;20025;-49
2022/10/27 11:16:58;;;;;;;7.82;2.83;;;28.80;65.90;;;;;;5069776;28;20097;-51
2022/10/27 11:19:30;;;;;;;9.85;2.60;;;28.80;67.60;;;;;;5070041;28;20048;-50
2022/10/27 11:22:03;;;;;;;5.82;3.05;;;29.30;66.40;;;;;;5070519;28;20013;-50
2022/10/27 11:25:01;;;;;;;9.32;3.38;;;29.80;64.40;;;;;;5070442;28;20016;-52
2022/10/27 11:28:03;;;;;;;13.00;3.40;;;30.10;64.30;;;;;;5069116;28;20495;-52
2022/10/27 11:30:30;;;;;;;10.13;2.58;;;29.90;63.00;;;;;;5070824;28;20074;-53
2022/10/27 11:33:03;;;;;;;19.02;3.10;;;29.40;65.30;;;;;;5070761;28;20051;-51
2022/10/27 11:35:53;;;;;;;8.38;3.15;;;29.80;63.70;;;;;;5069690;28;20063;-50
2022/10/27 11:38:53;;;;;;;12.27;2.72;;;29.60;64.30;;;;;;5049996;28;20025;-52
2022/10/27 11:41:24;;;;;;;16.52;2.53;;;29.70;63.60;;;;;;5050061;28;20025;-53
2022/10/27 11:44:01;;;;;;;11.43;2.33;;;30.40;63.00;;;;;;5050249;28;20013;-52
2022/10/27 11:46:41;;;;;;;11.50;2.47;;;29.90;61.00;;;;;;5059930;28;20063;-54
2022/10/27 11:49:19;;;;;;;11.50;3.42;;;30.10;60.80;;;;;;5069971;28;20021;-53
2022/10/27 11:51:52;;;;;;;19.02;2.83;;;29.40;59.60;;;;;;5068724;28;20077;-54
2022/10/27 11:54:22;;;;;;;10.80;3.10;;;30.10;60.70;;;;;;5069823;28;20025;-53
2022/10/27 11:56:51;;;;;;;22.90;4.18;;;29.90;60.20;;;;;;5070141;28;20021;-54
2022/10/27 11:59:29;;;;;;;18.38;3.13;;;30.00;60.30;;;;;;5070095;28;20021;-55
2022/10/27 12:02:06;;;;;;;8.32;2.45;;;30.30;60.30;;;;;;5069902;28;20111;-51
2022/10/27 12:05:06;;;;;;;13.60;2.83;;;31.00;59.30;;;;;;5069708;28;20021;-53
2022/10/27 12:07:31;;;;;;;9.85;3.47;;;30.10;60.90;;;;;;5069657;28;20075;-50
2022/10/27 12:10:18;;;;;;;11.23;2.88;;;30.30;60.40;;;;;;5069687;28;20515;-54
2022/10/27 12:12:48;;;;;;;5.82;2.25;;;30.60;58.60;;;;;;5070172;28;20033;-50
2022/10/27 12:15:26;;;;;;;7.93;2.47;;;30.60;59.50;;;;;;5070025;28;20414;-52
2022/10/27 12:18:21;;;;;;;9.15;2.47;;;30.40;59.10;;;;;;5070147;28;20031;-52
2022/10/27 12:21:17;;;;;;;17.15;3.30;;;30.20;60.90;;;;;;5069827;28;20389;-55
2022/10/27 12:24:22;;;;;;;10.38;3.20;;;30.60;59.80;;;;;;5070074;28;20024;-55
2022/10/27 12:27:15;;;;;;;12.07;2.75;;;30.90;59.40;;;;;;5071325;28;20024;-52
2022/10/27 12:29:48;;;;;;;13.52;3.15;;;31.30;58.10;;;;;;5069115;28;20047;-51
2022/10/27 12:32:24;;;;;;;31.20;3.53;;;30.90;58.60;;;;;;5074128;28;20384;-55
2022/10/27 12:35:01;;;;;;;15.80;2.45;;;31.50;57.80;;;;;;5072612;28;20525;-50
2022/10/27 12:37:38;;;;;;;18.40;2.78;;;32.20;57.80;;;;;;5073882;28;20025;-52
2022/10/27 12:40:23;;;;;;;15.15;2.70;;;32.10;55.70;;;;;;5054036;28;20033;-55
2022/10/27 12:43:07;;;;;;;9.52;2.95;;;32.30;55.10;;;;;;5053781;28;20120;-54
2022/10/27 12:46:09;;;;;;;15.13;2.70;;;31.60;55.00;;;;;;5053733;28;20112;-56
2022/10/27 12:48:51;;;;;;;12.00;3.33;;;31.20;55.90;;;;;;5053730;28;20024;-54
2022/10/27 12:51:27;;;;;;;;;;;30.90;58.30;;;;;;5053898;28;20112;-51
2022/10/27 12:54:02;;;;;;;16.17;2.78;;;31.10;57.80;;;;;;5066698;28;20050;-51
2022/10/27 12:56:43;;;;;;;17.75;3.47;;;31.80;57.10;;;;;;5072731;28;20036;-54
2022/10/27 12:59:18;;;;;;;18.30;3.28;;;32.10;56.50;;;;;;5073464;28;20416;-55
2022/10/27 13:01:57;;;;;;;7.32;2.85;;;32.10;56.40;;;;;;5073806;28;20108;-53
2022/10/27 13:04:54;;;;;;;8.07;2.60;;;32.30;56.30;;;;;;5073226;28;20414;-50
2022/10/27 13:07:32;;;;;;;13.43;2.80;;;31.90;55.20;;;;;;4985848;28;20067;-50